Time;durP1;ratioP1;P1;durP2;ratioP2;P2;SDS_P1;SDS_P2;PMS_P1;PMS_P2;Temp;Humidity;BMP_temperature;BMP_pressure;BME280_temperature;BME280_humidity;BME280_pressure;Samples;Min_cycle;Max_cycle;Signal;HPM_P1;HPM_P2
2024/04/20 00:00:52;;;;;;;2.45;2.25;;;5.90;99.90;;;;;;5527588;26;20323;-61
2024/04/20 00:03:20;;;;;;;2.80;2.45;;;5.90;99.90;;;;;;5527332;25;20371;-60
2024/04/20 00:05:51;;;;;;;3.20;2.47;;;5.90;99.90;;;;;;5526554;26;20323;-60
2024/04/20 00:08:20;;;;;;;3.15;2.45;;;5.90;99.90;;;;;;5526854;26;20203;-61
2024/04/20 00:10:48;;;;;;;3.67;1.88;;;5.90;99.90;;;;;;5527039;26;20663;-60
2024/04/20 00:13:16;;;;;;;2.55;2.35;;;5.90;99.90;;;;;;5527141;25;20683;-60
2024/04/20 00:15:45;;;;;;;3.10;2.63;;;5.90;99.90;;;;;;5527438;26;20220;-60
2024/04/20 00:18:13;;;;;;;2.88;2.67;;;5.90;99.90;;;;;;5528072;26;20220;-59
2024/04/20 00:20:42;;;;;;;2.63;2.28;;;5.90;99.90;;;;;;5528395;26;20690;-60
2024/04/20 00:23:13;;;;;;;2.63;2.42;;;5.80;99.90;;;;;;5527083;25;20274;-60
2024/04/20 00:25:41;;;;;;;2.70;2.50;;;5.80;99.90;;;;;;5527456;26;20211;-59
2024/04/20 00:28:10;;;;;;;3.53;2.60;;;5.80;99.90;;;;;;5528246;25;20239;-61
2024/04/20 00:30:38;;;;;;;2.45;2.20;;;5.80;99.90;;;;;;5531651;26;20219;-61
2024/04/20 00:33:07;;;;;;;2.92;2.60;;;5.80;99.90;;;;;;5531196;25;20307;-61
2024/04/20 00:35:39;;;;;;;2.63;2.40;;;5.80;99.90;;;;;;5530729;26;20224;-61
2024/04/20 00:38:07;;;;;;;2.00;1.80;;;5.80;99.90;;;;;;5530753;26;20196;-61
2024/04/20 00:40:38;;;;;;;2.90;2.70;;;5.80;99.90;;;;;;5531109;26;20666;-60
2024/04/20 00:43:07;;;;;;;2.75;2.55;;;5.80;99.90;;;;;;5532292;25;20272;-60
2024/04/20 00:45:36;;;;;;;2.90;2.70;;;5.80;99.90;;;;;;5538133;25;20215;-61
2024/04/20 00:48:05;;;;;;;4.05;2.90;;;5.80;99.90;;;;;;5538832;26;20332;-60
2024/04/20 00:50:36;;;;;;;2.80;2.60;;;5.80;99.90;;;;;;5536861;26;20259;-61
2024/04/20 00:53:05;;;;;;;3.13;2.83;;;5.80;99.90;;;;;;5537542;25;20250;-60
2024/04/20 00:55:34;;;;;;;2.85;2.55;;;5.80;99.90;;;;;;5531399;26;20208;-60
2024/04/20 00:58:07;;;;;;;5.85;3.50;;;5.70;99.90;;;;;;5530278;26;20316;-60
2024/04/20 01:00:38;;;;;;;4.28;3.70;;;5.70;99.90;;;;;;5530666;25;20257;-61
2024/04/20 01:03:07;;;;;;;3.97;3.33;;;5.70;99.90;;;;;;5530897;25;20339;-61
2024/04/20 01:05:35;;;;;;;2.90;2.70;;;5.70;99.90;;;;;;5530128;26;20279;-60
2024/04/20 01:08:05;;;;;;;3.10;2.90;;;5.70;99.90;;;;;;5532564;26;20694;-60
2024/04/20 01:10:33;;;;;;;3.60;3.30;;;5.70;99.90;;;;;;5532064;25;20220;-60
2024/04/20 01:13:09;;;;;;;3.80;3.40;;;5.70;99.90;;;;;;5532344;25;20228;-60
2024/04/20 01:15:37;;;;;;;4.90;3.53;;;5.70;99.90;;;;;;5530629;26;20268;-61
2024/04/20 01:18:07;;;;;;;3.88;3.58;;;5.70;99.90;;;;;;5530262;26;20270;-61
2024/04/20 01:20:36;;;;;;;3.40;3.10;;;5.70;99.90;;;;;;5530432;26;20216;-60
2024/04/20 01:23:05;;;;;;;3.20;2.90;;;5.70;99.90;;;;;;5529889;25;20271;-60
2024/04/20 01:25:34;;;;;;;5.68;3.20;;;5.70;99.90;;;;;;5530775;26;20212;-60
2024/04/20 01:28:06;;;;;;;3.72;3.08;;;5.70;99.90;;;;;;5531006;26;20212;-59
2024/04/20 01:30:31;;;;;;;3.70;3.40;;;5.70;99.90;;;;;;5530614;26;20208;-61
2024/04/20 01:33:00;;;;;;;3.40;3.10;;;5.70;99.90;;;;;;5530449;25;20291;-60
2024/04/20 01:35:29;;;;;;;4.75;2.65;;;5.70;99.90;;;;;;5529862;26;20543;-61
2024/04/20 01:37:57;;;;;;;3.50;3.20;;;5.70;99.90;;;;;;5530342;26;20208;-61
2024/04/20 01:40:26;;;;;;;4.20;3.60;;;5.70;99.90;;;;;;5529352;26;20261;-61
2024/04/20 01:42:54;;;;;;;4.03;2.90;;;5.70;99.90;;;;;;5529059;25;20687;-62
2024/04/20 01:45:25;;;;;;;3.65;3.13;;;5.70;99.90;;;;;;5529183;26;20276;-61
2024/04/20 01:47:54;;;;;;;2.88;2.65;;;5.60;99.90;;;;;;5529907;26;20254;-60
2024/04/20 01:50:23;;;;;;;2.80;2.60;;;5.60;99.90;;;;;;5528946;26;20212;-60
2024/04/20 01:52:51;;;;;;;3.60;2.97;;;5.50;99.90;;;;;;5528865;25;20293;-61
2024/04/20 01:55:20;;;;;;;2.20;2.00;;;5.50;99.90;;;;;;5529036;25;20302;-60
2024/04/20 01:57:48;;;;;;;5.30;3.15;;;5.50;99.90;;;;;;5528840;26;20208;-61
2024/04/20 02:00:17;;;;;;;3.28;2.70;;;5.50;99.90;;;;;;5530532;26;20272;-60
2024/04/20 02:02:48;;;;;;;3.60;2.80;;;5.50;99.90;;;;;;5533244;25;20220;-61
2024/04/20 02:05:16;;;;;;;4.95;2.45;;;5.50;99.90;;;;;;5533922;26;20219;-60
2024/04/20 02:07:45;;;;;;;3.83;2.15;;;5.40;99.90;;;;;;5531933;25;20215;-60
2024/04/20 02:10:14;;;;;;;3.22;2.90;;;5.40;99.90;;;;;;5530142;26;20212;-61
2024/04/20 02:12:42;;;;;;;4.05;2.50;;;5.40;99.90;;;;;;5529240;25;20240;-61
2024/04/20 02:15:10;;;;;;;5.00;3.25;;;5.40;99.90;;;;;;5528863;26;20208;-61
2024/04/20 02:17:39;;;;;;;3.75;2.88;;;5.40;99.90;;;;;;5529868;26;20613;-60
2024/04/20 02:20:11;;;;;;;5.55;2.92;;;5.40;99.90;;;;;;5530271;26;20223;-61
2024/04/20 02:22:40;;;;;;;3.35;2.70;;;5.40;99.90;;;;;;5529101;25;20236;-60
2024/04/20 02:25:08;;;;;;;2.90;2.47;;;5.30;99.90;;;;;;5529276;25;20212;-59
2024/04/20 02:27:37;;;;;;;3.08;2.10;;;5.30;99.90;;;;;;5528872;26;20647;-61
2024/04/20 02:30:06;;;;;;;2.40;2.20;;;5.40;99.90;;;;;;5529087;26;20310;-60
2024/04/20 02:32:34;;;;;;;2.78;2.28;;;5.30;99.90;;;;;;5529601;25;20324;-61
2024/04/20 02:35:03;;;;;;;3.25;2.95;;;5.30;99.90;;;;;;5529465;26;20290;-60
2024/04/20 02:37:34;;;;;;;2.85;2.63;;;5.30;99.90;;;;;;5528898;26;20217;-60
2024/04/20 02:40:03;;;;;;;3.85;2.63;;;5.30;99.90;;;;;;5528855;26;20260;-60
2024/04/20 02:42:31;;;;;;;3.03;2.40;;;5.30;99.90;;;;;;5528194;25;20272;-60
2024/04/20 02:44:59;;;;;;;3.17;2.88;;;5.30;99.90;;;;;;5528053;26;20265;-60
2024/04/20 02:47:28;;;;;;;2.70;2.50;;;5.30;99.90;;;;;;5527720;26;20212;-60
2024/04/20 02:49:57;;;;;;;3.13;2.10;;;5.20;99.90;;;;;;5528123;25;20271;-60
2024/04/20 02:52:26;;;;;;;3.15;2.03;;;5.20;99.90;;;;;;5526530;25;20221;-60
2024/04/20 02:54:54;;;;;;;3.60;2.38;;;5.20;99.90;;;;;;5528061;26;20260;-60
2024/04/20 02:57:22;;;;;;;3.85;2.53;;;5.20;99.90;;;;;;5527996;26;20251;-60
2024/04/20 02:59:51;;;;;;;2.70;2.38;;;5.20;99.90;;;;;;5528297;26;20263;-61
2024/04/20 03:02:19;;;;;;;4.95;3.17;;;5.20;99.90;;;;;;5529191;25;20268;-60
2024/04/20 03:04:47;;;;;;;2.45;2.25;;;5.20;99.90;;;;;;5529458;26;20276;-61
2024/04/20 03:07:16;;;;;;;3.00;2.72;;;5.20;99.90;;;;;;5527845;26;20228;-61
2024/04/20 03:09:44;;;;;;;3.65;3.35;;;5.10;99.90;;;;;;5528047;26;20276;-61
2024/04/20 03:12:16;;;;;;;4.45;3.00;;;5.10;99.90;;;;;;5527577;25;20261;-60
2024/04/20 03:14:44;;;;;;;4.32;2.78;;;5.10;99.90;;;;;;5527752;26;20604;-60
2024/04/20 03:17:13;;;;;;;4.53;2.80;;;5.10;99.90;;;;;;5527933;26;20309;-60
2024/04/20 03:19:41;;;;;;;2.90;2.40;;;5.10;99.90;;;;;;5527664;26;20260;-61
2024/04/20 03:22:10;;;;;;;3.85;2.70;;;5.10;99.90;;;;;;5527325;25;20220;-60
2024/04/20 03:24:39;;;;;;;2.65;2.08;;;5.10;99.90;;;;;;5527643;26;20287;-61
2024/04/20 03:27:05;;;;;;;3.60;2.33;;;5.10;99.90;;;;;;5528252;26;20212;-60
2024/04/20 03:29:36;;;;;;;6.83;2.60;;;5.10;99.90;;;;;;5528110;26;20223;-60
2024/04/20 03:32:05;;;;;;;2.78;2.35;;;5.10;99.90;;;;;;5527997;25;20725;-61
2024/04/20 03:34:34;;;;;;;3.70;2.63;;;5.10;99.90;;;;;;5527903;25;20208;-60
2024/04/20 03:37:04;;;;;;;2.53;2.30;;;5.10;99.90;;;;;;5527865;25;20262;-60
2024/04/20 03:39:32;;;;;;;3.40;2.40;;;5.10;99.90;;;;;;5527615;26;20200;-60
2024/04/20 03:42:01;;;;;;;3.55;2.10;;;5.00;99.90;;;;;;5527391;25;20827;-60
2024/04/20 03:44:29;;;;;;;2.97;2.35;;;5.00;99.90;;;;;;5527597;26;20267;-59
2024/04/20 03:47:00;;;;;;;2.95;2.63;;;4.90;99.90;;;;;;5527574;26;20263;-60
2024/04/20 03:49:28;;;;;;;4.65;2.55;;;4.90;99.90;;;;;;5528023;26;20254;-60
2024/04/20 03:51:57;;;;;;;2.55;2.35;;;4.90;99.90;;;;;;5527079;25;20301;-60
2024/04/20 03:54:25;;;;;;;2.88;1.98;;;4.80;99.90;;;;;;5527930;26;20324;-60
2024/04/20 03:56:54;;;;;;;2.50;2.05;;;4.80;99.90;;;;;;5527776;26;20538;-59
2024/04/20 03:59:22;;;;;;;3.10;2.00;;;4.80;99.90;;;;;;5527793;26;20299;-60
2024/04/20 04:01:50;;;;;;;2.63;2.20;;;4.80;99.90;;;;;;5527329;25;20264;-59
2024/04/20 04:04:21;;;;;;;3.65;2.60;;;4.80;99.90;;;;;;5527628;26;20272;-60
2024/04/20 04:06:50;;;;;;;2.95;2.22;;;4.80;99.90;;;;;;5527719;26;20267;-60
2024/04/20 04:09:18;;;;;;;3.08;2.63;;;4.80;99.90;;;;;;5527511;26;20751;-61
2024/04/20 04:13:39;;;;;;;2.80;2.20;;;4.80;99.90;;;;;;5554190;25;1165060;-60
2024/04/20 04:16:09;;;;;;;2.78;1.80;;;4.80;99.90;;;;;;5583853;25;20339;-60
2024/04/20 04:18:37;;;;;;;3.95;2.25;;;4.80;99.90;;;;;;5584038;25;20210;-61
2024/04/20 04:21:04;;;;;;;2.88;1.75;;;4.90;99.90;;;;;;5584431;25;20222;-61
2024/04/20 04:23:33;;;;;;;2.35;1.98;;;4.90;99.90;;;;;;5584088;25;20222;-61
2024/04/20 04:26:03;;;;;;;2.10;1.90;;;4.90;99.90;;;;;;5584804;25;20214;-61
2024/04/20 04:28:32;;;;;;;5.35;2.42;;;4.90;99.90;;;;;;5593548;25;20207;-61
2024/04/20 04:31:03;;;;;;;2.33;1.85;;;4.90;99.90;;;;;;5598089;25;20278;-60
2024/04/20 04:33:31;;;;;;;2.15;1.88;;;4.90;99.90;;;;;;5590254;25;20222;-61
2024/04/20 04:36:00;;;;;;;2.28;2.08;;;5.00;99.90;;;;;;5586475;25;20281;-61
2024/04/20 04:38:29;;;;;;;3.17;1.90;;;5.00;99.90;;;;;;5584590;25;20211;-60
2024/04/20 04:40:57;;;;;;;3.67;2.10;;;5.00;99.90;;;;;;5584021;25;20538;-60
2024/04/20 04:43:26;;;;;;;2.10;1.90;;;5.00;99.90;;;;;;5584551;25;20226;-60
2024/04/20 04:45:55;;;;;;;2.28;1.80;;;5.00;99.90;;;;;;5584047;25;20282;-60
2024/04/20 04:48:28;;;;;;;2.40;1.70;;;5.00;99.90;;;;;;5584241;25;20849;-61
2024/04/20 04:50:56;;;;;;;1.75;1.40;;;5.10;99.90;;;;;;5583951;25;20293;-59
2024/04/20 04:53:25;;;;;;;5.28;1.95;;;5.10;99.90;;;;;;5583998;25;20643;-60
2024/04/20 04:55:53;;;;;;;2.30;2.15;;;5.10;99.90;;;;;;5584158;25;20342;-60
2024/04/20 04:58:22;;;;;;;2.28;2.08;;;5.10;99.90;;;;;;5584135;25;20542;-60
2024/04/20 05:00:50;;;;;;;2.10;1.90;;;5.10;99.90;;;;;;5583640;25;20332;-59
2024/04/20 05:03:18;;;;;;;2.42;1.63;;;5.00;99.90;;;;;;5583694;25;20270;-60
2024/04/20 05:05:51;;;;;;;2.95;2.00;;;5.00;99.90;;;;;;5584210;25;20330;-60
2024/04/20 05:08:19;;;;;;;1.90;1.70;;;5.00;99.90;;;;;;5583932;25;20684;-60
2024/04/20 05:10:48;;;;;;;4.30;1.90;;;5.00;99.90;;;;;;5583657;25;20278;-60
2024/04/20 05:13:16;;;;;;;6.78;1.90;;;5.00;99.90;;;;;;5585453;25;20223;-60
2024/04/20 05:15:44;;;;;;;2.90;2.10;;;4.90;99.90;;;;;;5590646;25;20253;-61
2024/04/20 05:18:15;;;;;;;1.73;1.63;;;4.90;99.90;;;;;;5590541;25;20222;-61
2024/04/20 05:20:43;;;;;;;2.13;1.92;;;4.90;99.90;;;;;;5586420;25;20240;-60
2024/04/20 05:23:15;;;;;;;2.25;1.55;;;5.00;99.90;;;;;;5578981;25;20230;-61
2024/04/20 05:25:45;;;;;;;6.97;2.72;;;5.00;99.90;;;;;;5567620;25;20202;-61
2024/04/20 05:28:13;;;;;;;2.40;1.95;;;5.10;99.90;;;;;;5567024;25;20267;-60
2024/04/20 05:30:42;;;;;;;1.77;1.67;;;5.10;99.90;;;;;;5567932;25;20230;-61
2024/04/20 05:33:10;;;;;;;3.60;2.20;;;5.10;99.90;;;;;;5572307;25;20245;-60
2024/04/20 05:35:39;;;;;;;2.25;1.55;;;5.10;99.90;;;;;;5568996;25;20312;-63
2024/04/20 05:38:07;;;;;;;1.70;1.48;;;5.10;99.90;;;;;;5567750;25;20218;-60
2024/04/20 05:40:41;;;;;;;2.28;2.08;;;5.10;99.90;;;;;;5568115;25;20215;-62
2024/04/20 05:43:10;;;;;;;5.13;2.00;;;5.20;99.90;;;;;;5567726;25;20241;-60
2024/04/20 05:45:38;;;;;;;1.70;1.60;;;5.20;99.90;;;;;;5567705;25;20217;-61
2024/04/20 05:48:08;;;;;;;3.30;2.20;;;5.20;99.90;;;;;;5567445;25;20701;-61
2024/04/20 05:50:36;;;;;;;3.10;2.08;;;5.20;99.90;;;;;;5566947;25;20687;-60
2024/04/20 05:53:06;;;;;;;2.50;1.95;;;5.20;99.90;;;;;;5569924;25;20358;-61
2024/04/20 05:55:35;;;;;;;2.42;1.90;;;5.30;99.90;;;;;;5570071;25;20530;-61
2024/04/20 05:58:06;;;;;;;1.70;1.60;;;5.30;99.90;;;;;;5568083;25;20643;-60
2024/04/20 06:00:34;;;;;;;1.40;1.30;;;5.30;99.90;;;;;;5567834;25;20254;-60
2024/04/20 06:03:03;;;;;;;3.22;2.10;;;5.30;99.90;;;;;;5568021;25;20235;-62
2024/04/20 06:05:32;;;;;;;2.13;1.80;;;5.40;99.90;;;;;;5567844;25;20207;-61
2024/04/20 06:08:00;;;;;;;4.60;1.83;;;5.50;99.90;;;;;;5567480;25;20223;-58
2024/04/20 06:10:29;;;;;;;2.10;1.65;;;5.60;99.90;;;;;;5569122;25;20211;-61
2024/04/20 06:12:58;;;;;;;2.10;1.90;;;5.70;99.90;;;;;;5568738;25;20348;-62
2024/04/20 06:15:33;;;;;;;1.77;1.67;;;5.70;99.90;;;;;;5567858;25;20215;-61
2024/04/20 06:18:02;;;;;;;2.50;1.88;;;5.80;99.90;;;;;;5566779;25;20244;-62
2024/04/20 06:20:30;;;;;;;2.42;2.10;;;5.80;99.90;;;;;;5566937;25;20222;-61
2024/04/20 06:22:59;;;;;;;6.68;1.80;;;5.80;99.90;;;;;;5565788;25;20222;-61
2024/04/20 06:25:27;;;;;;;2.55;1.80;;;5.90;99.90;;;;;;5567202;25;20248;-62
2024/04/20 06:27:56;;;;;;;2.05;1.75;;;6.00;99.90;;;;;;5567227;25;20255;-61
2024/04/20 06:30:24;;;;;;;2.53;2.05;;;6.10;99.90;;;;;;5567277;25;20255;-60
2024/04/20 06:32:55;;;;;;;1.95;1.75;;;6.20;99.90;;;;;;5566685;25;20238;-61
2024/04/20 06:35:24;;;;;;;2.13;1.55;;;6.30;99.90;;;;;;5565286;25;20594;-59
2024/04/20 06:37:53;;;;;;;2.65;1.67;;;6.40;99.90;;;;;;5566719;25;20306;-60
2024/04/20 06:40:21;;;;;;;4.40;1.60;;;6.50;99.90;;;;;;5566424;25;20766;-59
2024/04/20 06:42:50;;;;;;;2.97;1.60;;;6.50;99.90;;;;;;5565960;25;20567;-61
2024/04/20 06:45:18;;;;;;;1.77;1.67;;;6.60;99.90;;;;;;5566623;25;20266;-61
2024/04/20 06:47:47;;;;;;;3.80;1.88;;;6.60;99.90;;;;;;5567429;25;20219;-61
2024/04/20 06:50:18;;;;;;;1.83;1.60;;;6.70;99.90;;;;;;5567926;25;20211;-62
2024/04/20 06:52:47;;;;;;;2.95;1.63;;;6.80;99.90;;;;;;5566774;25;20278;-60
2024/04/20 06:55:16;;;;;;;3.10;1.40;;;7.00;99.90;;;;;;5569562;25;20215;-60
2024/04/20 06:57:44;;;;;;;2.42;1.60;;;7.10;99.90;;;;;;5576250;25;20218;-61
2024/04/20 07:00:14;;;;;;;1.80;1.70;;;7.20;99.90;;;;;;5576262;25;20220;-60
2024/04/20 07:02:42;;;;;;;1.90;1.55;;;7.30;99.90;;;;;;5573744;25;20291;-61
2024/04/20 07:05:10;;;;;;;2.03;1.80;;;7.40;99.90;;;;;;5567931;25;20338;-60
2024/04/20 07:07:41;;;;;;;1.60;1.50;;;7.60;99.90;;;;;;5566940;25;20211;-60
2024/04/20 07:10:10;;;;;;;3.63;1.60;;;7.60;98.70;;;;;;5567103;25;20263;-59
2024/04/20 07:12:38;;;;;;;4.18;1.80;;;7.70;98.50;;;;;;5565763;25;20276;-59
2024/04/20 07:15:07;;;;;;;1.90;1.50;;;7.70;98.10;;;;;;5566470;25;20263;-61
2024/04/20 07:17:36;;;;;;;1.95;1.75;;;7.80;97.90;;;;;;5567084;25;20300;-59
2024/04/20 07:20:05;;;;;;;1.27;1.10;;;7.90;97.30;;;;;;5571048;25;20609;-60
2024/04/20 07:22:33;;;;;;;1.75;1.27;;;8.00;95.90;;;;;;5565705;25;20397;-60
2024/04/20 07:25:05;;;;;;;1.80;1.38;;;8.00;92.10;;;;;;5565648;25;20701;-60
2024/04/20 07:27:33;;;;;;;1.60;1.08;;;7.90;90.70;;;;;;5573206;25;20246;-61
2024/04/20 07:30:02;;;;;;;1.50;1.02;;;7.90;90.40;;;;;;5572573;25;20211;-60
2024/04/20 07:32:30;;;;;;;1.42;1.17;;;8.00;89.50;;;;;;5568243;25;20301;-61
2024/04/20 07:34:59;;;;;;;2.20;1.10;;;8.00;88.90;;;;;;5572653;25;20314;-60
2024/04/20 07:37:27;;;;;;;1.65;1.30;;;8.10;87.50;;;;;;5576680;25;20218;-60
2024/04/20 07:39:55;;;;;;;1.45;1.10;;;8.30;85.70;;;;;;5570776;25;20250;-60
2024/04/20 07:42:26;;;;;;;1.50;1.20;;;8.30;84.20;;;;;;5567042;25;20262;-61
2024/04/20 07:44:55;;;;;;;2.38;1.42;;;8.40;83.50;;;;;;5566659;25;20281;-61
2024/04/20 07:47:23;;;;;;;1.73;1.20;;;8.30;82.20;;;;;;5565088;25;20279;-60
2024/04/20 07:49:52;;;;;;;1.90;1.20;;;8.40;82.20;;;;;;5565629;25;20258;-59
2024/04/20 07:52:20;;;;;;;2.03;1.30;;;8.30;80.60;;;;;;5566069;25;20249;-57
2024/04/20 07:54:48;;;;;;;1.75;1.60;;;8.30;80.40;;;;;;5565137;25;20211;-60
2024/04/20 07:57:17;;;;;;;1.70;1.20;;;8.30;80.80;;;;;;5565481;25;20219;-60
2024/04/20 07:59:48;;;;;;;2.55;1.33;;;8.40;81.50;;;;;;5566903;25;20702;-60
2024/04/20 08:02:16;;;;;;;2.10;1.27;;;8.50;80.80;;;;;;5566052;25;20320;-61
2024/04/20 08:04:45;;;;;;;1.40;1.30;;;8.60;79.30;;;;;;5567048;25;20933;-61
2024/04/20 08:07:13;;;;;;;3.10;1.60;;;8.60;78.80;;;;;;5566641;25;20503;-60
2024/04/20 08:09:42;;;;;;;5.53;1.30;;;8.70;78.50;;;;;;5565654;25;20212;-61
2024/04/20 08:12:11;;;;;;;1.87;1.40;;;8.80;76.90;;;;;;5564671;25;20580;-60
2024/04/20 08:14:39;;;;;;;2.15;1.38;;;8.70;77.00;;;;;;5564477;25;21033;-61
2024/04/20 08:17:12;;;;;;;1.30;1.17;;;8.70;77.70;;;;;;5564683;25;20536;-59
2024/04/20 08:19:40;;;;;;;1.80;1.13;;;8.70;77.70;;;;;;5564443;25;20534;-61
2024/04/20 08:22:09;;;;;;;1.40;1.30;;;8.70;77.00;;;;;;5564698;25;20721;-59
2024/04/20 08:24:37;;;;;;;2.37;1.40;;;8.80;75.00;;;;;;5564365;25;20591;-59
2024/04/20 08:27:06;;;;;;;1.23;0.97;;;8.90;73.20;;;;;;5565055;25;20598;-61
2024/04/20 08:29:35;;;;;;;2.73;1.30;;;8.90;72.00;;;;;;5564864;25;20565;-60
2024/04/20 08:32:03;;;;;;;1.43;1.20;;;8.80;71.10;;;;;;5565062;25;20479;-60
2024/04/20 08:34:34;;;;;;;1.70;1.23;;;8.70;70.90;;;;;;5564769;25;20524;-60
2024/04/20 08:37:03;;;;;;;1.50;1.10;;;8.80;71.10;;;;;;5564723;25;20440;-61
2024/04/20 08:39:31;;;;;;;1.43;1.10;;;8.90;70.40;;;;;;5564529;25;20561;-59
2024/04/20 08:42:04;;;;;;;1.38;0.90;;;9.00;68.70;;;;;;5564789;25;20455;-60
2024/04/20 08:44:33;;;;;;;1.30;1.20;;;9.10;67.90;;;;;;5564171;25;20261;-60
2024/04/20 08:47:02;;;;;;;1.50;1.30;;;9.20;67.80;;;;;;5563890;25;20309;-60
2024/04/20 08:49:35;;;;;;;2.00;1.40;;;9.30;66.70;;;;;;5564183;25;20448;-60
2024/04/20 08:52:02;;;;;;;1.40;1.30;;;9.50;66.40;;;;;;5564377;25;20460;-60
2024/04/20 08:54:33;;;;;;;1.13;1.03;;;9.70;65.00;;;;;;5564013;25;20449;-61
2024/04/20 08:57:01;;;;;;;1.97;1.23;;;9.70;63.20;;;;;;5564147;25;20647;-60
2024/04/20 08:59:30;;;;;;;2.07;1.20;;;9.80;62.50;;;;;;5566037;25;20807;-60
2024/04/20 09:01:59;;;;;;;1.93;1.20;;;10.10;60.40;;;;;;5568367;25;21022;-59
2024/04/20 09:04:28;;;;;;;2.50;1.10;;;10.30;59.60;;;;;;5568842;25;20557;-60
2024/04/20 09:06:59;;;;;;;1.97;1.03;;;10.50;59.00;;;;;;5567874;25;20441;-59
2024/04/20 09:09:29;;;;;;;1.47;1.20;;;10.50;58.10;;;;;;5569586;25;20516;-60
2024/04/20 09:11:58;;;;;;;2.27;1.30;;;10.30;57.90;;;;;;5568687;25;20453;-60
2024/04/20 09:14:28;;;;;;;2.07;1.97;;;10.20;57.70;;;;;;5569566;25;20506;-61
2024/04/20 09:16:57;;;;;;;1.47;0.80;;;10.20;58.00;;;;;;5573989;25;20428;-61
2024/04/20 09:19:26;;;;;;;1.50;1.40;;;10.30;57.60;;;;;;5577743;25;20436;-61
2024/04/20 09:21:55;;;;;;;1.73;1.30;;;10.30;56.70;;;;;;5572207;25;20519;-60
2024/04/20 09:24:26;;;;;;;1.50;1.37;;;10.40;55.60;;;;;;5567785;25;20601;-61
2024/04/20 09:26:55;;;;;;;1.50;1.37;;;10.30;54.40;;;;;;5568116;25;20455;-61
2024/04/20 09:29:24;;;;;;;1.90;1.27;;;10.40;54.70;;;;;;5569057;25;20445;-61
2024/04/20 09:31:54;;;;;;;1.87;1.30;;;10.40;54.60;;;;;;5567865;25;20453;-60
2024/04/20 09:34:24;;;;;;;1.40;1.30;;;10.50;53.90;;;;;;5574533;25;20434;-59
2024/04/20 09:36:53;;;;;;;1.10;0.80;;;10.50;53.50;;;;;;5580404;25;20425;-60
2024/04/20 09:39:22;;;;;;;1.50;1.20;;;10.60;53.40;;;;;;5578370;25;20941;-61
2024/04/20 09:41:54;;;;;;;1.23;1.00;;;10.70;53.30;;;;;;5576371;25;20505;-61
2024/04/20 09:44:25;;;;;;;1.47;1.13;;;10.80;52.90;;;;;;5573690;25;20497;-61
2024/04/20 09:46:54;;;;;;;3.03;1.57;;;10.70;51.40;;;;;;5573405;25;20489;-60
2024/04/20 09:49:30;;;;;;;1.77;1.07;;;10.60;49.80;;;;;;5574168;25;20441;-60
2024/04/20 09:52:06;;;;;;;1.20;0.90;;;10.60;50.10;;;;;;5568941;25;20448;-61
2024/04/20 09:54:43;;;;;;;1.90;1.00;;;10.70;50.00;;;;;;5570436;25;20440;-61
2024/04/20 09:57:16;;;;;;;1.30;1.07;;;10.90;49.10;;;;;;5575437;25;20557;-60
2024/04/20 09:59:47;;;;;;;2.80;1.23;;;11.00;48.20;;;;;;5574849;25;20486;-61
2024/04/20 10:02:17;;;;;;;2.07;1.30;;;11.10;47.00;;;;;;5570354;25;20513;-59
2024/04/20 10:04:46;;;;;;;1.23;1.13;;;11.10;45.80;;;;;;5568795;25;20524;-60
2024/04/20 10:07:18;;;;;;;1.47;1.10;;;11.10;44.90;;;;;;5567864;25;20502;-60
2024/04/20 10:09:47;;;;;;;1.13;0.97;;;11.20;43.70;;;;;;5567884;25;21086;-61
2024/04/20 10:12:19;;;;;;;1.10;0.90;;;11.30;42.40;;;;;;5567057;25;21030;-61
2024/04/20 10:14:48;;;;;;;1.30;1.20;;;11.40;41.50;;;;;;5567131;25;20970;-61
2024/04/20 10:17:16;;;;;;;1.70;0.90;;;11.40;41.00;;;;;;5567020;25;20526;-61
2024/04/20 10:19:45;;;;;;;1.70;1.00;;;11.60;41.70;;;;;;5566684;25;20457;-62
2024/04/20 10:22:14;;;;;;;1.20;0.90;;;11.90;40.80;;;;;;5567300;25;20573;-61
2024/04/20 10:24:53;;;;;;;1.63;1.20;;;12.00;39.90;;;;;;5567237;25;20510;-62
2024/04/20 10:27:28;;;;;;;1.97;1.57;;;12.10;40.00;;;;;;5568096;25;20869;-61
2024/04/20 10:30:11;;;;;;;2.53;0.90;;;12.10;40.20;;;;;;5568104;25;20493;-61
2024/04/20 10:32:39;;;;;;;1.60;1.00;;;11.90;40.40;;;;;;5568206;25;20453;-62
2024/04/20 10:35:08;;;;;;;1.30;1.20;;;11.60;40.80;;;;;;5567520;25;20509;-62
2024/04/20 10:37:37;;;;;;;1.80;1.20;;;11.50;41.60;;;;;;5568011;25;20513;-61
2024/04/20 10:40:13;;;;;;;3.17;1.50;;;11.50;41.60;;;;;;5567342;25;20452;-62
2024/04/20 10:42:44;;;;;;;1.50;1.17;;;11.50;41.50;;;;;;5567273;25;20562;-61
2024/04/20 10:45:15;;;;;;;2.37;1.30;;;11.50;41.00;;;;;;5567162;25;20577;-62
2024/04/20 10:47:44;;;;;;;1.63;1.30;;;11.60;41.10;;;;;;5567439;25;21046;-61
2024/04/20 10:50:12;;;;;;;1.37;1.07;;;11.80;41.40;;;;;;5567254;25;20538;-61
2024/04/20 10:52:40;;;;;;;2.00;1.80;;;11.90;41.40;;;;;;5566981;25;20466;-63
2024/04/20 10:55:18;;;;;;;1.87;1.63;;;11.80;41.50;;;;;;5568044;25;20457;-61
2024/04/20 10:57:49;;;;;;;1.70;1.60;;;11.70;42.00;;;;;;5568779;25;21105;-60
2024/04/20 11:00:21;;;;;;;1.90;1.60;;;11.60;42.00;;;;;;5570348;25;20502;-61
2024/04/20 11:02:52;;;;;;;2.47;1.70;;;11.50;42.40;;;;;;5579185;25;20513;-63
2024/04/20 11:05:21;;;;;;;2.00;1.80;;;11.50;42.60;;;;;;5571231;25;20449;-61
2024/04/20 11:08:00;;;;;;;1.60;1.50;;;11.50;42.60;;;;;;5568159;25;20444;-61
2024/04/20 11:10:28;;;;;;;2.17;1.97;;;11.60;43.10;;;;;;5567785;25;20452;-63
2024/04/20 11:13:04;;;;;;;1.97;1.50;;;11.60;42.70;;;;;;5568531;25;20547;-61
2024/04/20 11:15:35;;;;;;;1.63;1.53;;;11.50;42.30;;;;;;5569232;25;20452;-62
2024/04/20 11:18:03;;;;;;;2.77;1.90;;;11.60;41.70;;;;;;5568475;25;20445;-62
2024/04/20 11:20:32;;;;;;;2.27;1.40;;;11.80;41.30;;;;;;5568370;25;20929;-62
2024/04/20 11:23:03;;;;;;;1.90;1.37;;;12.10;40.50;;;;;;5566086;25;20533;-62
2024/04/20 11:25:32;;;;;;;1.50;1.13;;;12.00;39.90;;;;;;5566931;25;20442;-62
2024/04/20 11:28:04;;;;;;;2.50;1.50;;;12.00;40.40;;;;;;5566967;25;20520;-61
2024/04/20 11:30:40;;;;;;;2.37;1.90;;;12.10;40.90;;;;;;5566517;25;21008;-63
2024/04/20 11:33:08;;;;;;;2.20;1.70;;;12.20;41.30;;;;;;5566414;25;20462;-61
2024/04/20 11:35:37;;;;;;;2.50;1.97;;;12.20;41.60;;;;;;5566519;25;20520;-61
2024/04/20 11:38:08;;;;;;;1.70;1.57;;;12.20;41.80;;;;;;5567495;25;20532;-63
2024/04/20 11:40:37;;;;;;;2.00;1.53;;;12.20;41.30;;;;;;5567197;25;20531;-61
2024/04/20 11:43:08;;;;;;;1.60;1.50;;;12.00;41.30;;;;;;5566599;25;20525;-63
2024/04/20 11:45:36;;;;;;;3.13;1.50;;;11.90;41.30;;;;;;5566671;25;20470;-63
2024/04/20 11:48:09;;;;;;;1.93;1.47;;;11.80;41.80;;;;;;5567067;25;20505;-62
2024/04/20 11:50:40;;;;;;;1.80;1.40;;;11.60;41.70;;;;;;5566379;25;20504;-61
2024/04/20 11:55:54;;;;;;;1.77;1.60;;;11.30;42.10;;;;;;5570126;25;20464;-63
2024/04/20 11:58:25;;;;;;;1.67;1.10;;;11.30;42.50;;;;;;5568563;25;20801;-63
2024/04/20 12:00:54;;;;;;;4.07;1.80;;;11.50;42.10;;;;;;5567834;25;20437;-62
2024/04/20 12:03:23;;;;;;;1.43;1.30;;;11.60;40.80;;;;;;5567156;25;20464;-62
2024/04/20 12:05:51;;;;;;;2.43;1.50;;;11.60;40.20;;;;;;5566498;25;20517;-62
2024/04/20 12:08:20;;;;;;;1.90;1.40;;;11.60;40.30;;;;;;5566998;25;20953;-63
2024/04/20 12:10:49;;;;;;;2.33;1.43;;;11.80;40.60;;;;;;5565913;25;20498;-63
2024/04/20 12:13:17;;;;;;;2.53;1.90;;;12.10;40.60;;;;;;5568211;25;20527;-63
2024/04/20 12:15:48;;;;;;;2.07;1.87;;;12.20;40.20;;;;;;5571180;25;20454;-63
2024/04/20 12:18:17;;;;;;;2.60;1.23;;;12.40;40.10;;;;;;5571006;25;20528;-64
2024/04/20 12:20:45;;;;;;;2.53;1.50;;;12.50;39.50;;;;;;5569413;25;20460;-61
2024/04/20 12:23:14;;;;;;;1.60;1.20;;;12.30;39.10;;;;;;5570060;25;20590;-62
2024/04/20 12:25:49;;;;;;;1.53;1.20;;;12.10;39.60;;;;;;5570753;25;20787;-62
2024/04/20 12:28:17;;;;;;;1.20;1.10;;;12.00;39.90;;;;;;5571989;25;20440;-62
2024/04/20 12:30:48;;;;;;;3.53;1.57;;;12.00;40.00;;;;;;5568690;25;20987;-62
2024/04/20 12:33:16;;;;;;;1.77;1.50;;;12.10;40.20;;;;;;5570624;25;20557;-62
2024/04/20 12:35:47;;;;;;;2.03;1.47;;;12.20;39.80;;;;;;5573112;25;20584;-61
2024/04/20 12:38:15;;;;;;;2.67;1.47;;;12.20;39.00;;;;;;5572371;25;20495;-61
2024/04/20 12:40:44;;;;;;;2.43;1.60;;;12.20;38.70;;;;;;5573870;25;20550;-62
2024/04/20 12:43:12;;;;;;;3.33;1.30;;;12.10;38.70;;;;;;5574331;25;20513;-63
2024/04/20 12:45:41;;;;;;;1.83;1.43;;;12.10;38.60;;;;;;5575766;25;20445;-62
2024/04/20 12:48:21;;;;;;;2.17;1.60;;;12.10;38.50;;;;;;5578177;25;20501;-64
2024/04/20 12:50:53;;;;;;;2.30;1.80;;;12.00;38.60;;;;;;5573167;25;20540;-63
2024/04/20 12:53:21;;;;;;;1.17;1.07;;;11.90;38.90;;;;;;5573545;25;21062;-61
2024/04/20 12:55:49;;;;;;;2.50;1.77;;;11.90;39.20;;;;;;5571403;25;20506;-62
2024/04/20 12:58:18;;;;;;;2.23;1.47;;;11.90;39.20;;;;;;5572897;25;20452;-62
2024/04/20 13:00:46;;;;;;;1.33;1.20;;;11.80;39.10;;;;;;5573685;25;20663;-62
2024/04/20 13:03:15;;;;;;;1.97;1.47;;;11.70;39.10;;;;;;5574459;25;20830;-61
2024/04/20 13:05:46;;;;;;;1.83;1.27;;;11.60;39.20;;;;;;5574594;25;20552;-62
2024/04/20 13:08:14;;;;;;;0.80;0.80;;;11.50;39.40;;;;;;5574840;25;20449;-61